sensor_id;sensor_type;location;lat;lon;timestamp;P1;durP1;ratioP1;P2;durP2;ratioP2
37355;SDS011;48747;50.250;18.848;2024-01-16T00:01:32;22.42;;;8.45;;
37355;SDS011;48747;50.250;18.848;2024-01-16T00:03:36;19.52;;;8.75;;
37355;SDS011;48747;50.250;18.848;2024-01-16T00:05:40;23.73;;;9.55;;
37355;SDS011;48747;50.250;18.848;2024-01-16T00:07:43;20.70;;;9.68;;
37355;SDS011;48747;50.250;18.848;2024-01-16T00:09:46;15.03;;;8.15;;
37355;SDS011;48747;50.250;18.848;2024-01-16T00:11:51;19.50;;;8.18;;
37355;SDS011;48747;50.250;18.848;2024-01-16T00:13:56;23.02;;;9.83;;
37355;SDS011;48747;50.250;18.848;2024-01-16T00:15:59;21.20;;;9.80;;
37355;SDS011;48747;50.250;18.848;2024-01-16T00:18:09;21.42;;;9.53;;
37355;SDS011;48747;50.250;18.848;2024-01-16T00:20:11;21.42;;;9.88;;
37355;SDS011;48747;50.250;18.848;2024-01-16T00:22:15;20.85;;;9.63;;
37355;SDS011;48747;50.250;18.848;2024-01-16T00:24:22;18.95;;;8.68;;
37355;SDS011;48747;50.250;18.848;2024-01-16T00:26:29;23.80;;;9.78;;
37355;SDS011;48747;50.250;18.848;2024-01-16T00:28:31;18.70;;;10.00;;
37355;SDS011;48747;50.250;18.848;2024-01-16T00:30:38;20.00;;;9.23;;
37355;SDS011;48747;50.250;18.848;2024-01-16T00:32:42;19.75;;;8.70;;
37355;SDS011;48747;50.250;18.848;2024-01-16T00:34:48;20.15;;;9.35;;
37355;SDS011;48747;50.250;18.848;2024-01-16T00:36:54;13.58;;;7.75;;
37355;SDS011;48747;50.250;18.848;2024-01-16T00:39:03;13.75;;;8.50;;
37355;SDS011;48747;50.250;18.848;2024-01-16T00:41:01;15.78;;;7.65;;
37355;SDS011;48747;50.250;18.848;2024-01-16T00:43:04;20.30;;;9.05;;
37355;SDS011;48747;50.250;18.848;2024-01-16T00:45:09;19.48;;;9.75;;
37355;SDS011;48747;50.250;18.848;2024-01-16T00:47:12;29.92;;;12.13;;
37355;SDS011;48747;50.250;18.848;2024-01-16T00:49:18;26.95;;;11.40;;
37355;SDS011;48747;50.250;18.848;2024-01-16T00:51:22;34.45;;;14.80;;
37355;SDS011;48747;50.250;18.848;2024-01-16T00:53:26;26.35;;;13.08;;
37355;SDS011;48747;50.250;18.848;2024-01-16T00:55:29;28.75;;;11.63;;
37355;SDS011;48747;50.250;18.848;2024-01-16T00:57:35;25.90;;;11.80;;
37355;SDS011;48747;50.250;18.848;2024-01-16T00:59:38;19.50;;;9.03;;
37355;SDS011;48747;50.250;18.848;2024-01-16T01:01:43;17.57;;;8.50;;
37355;SDS011;48747;50.250;18.848;2024-01-16T01:03:46;18.55;;;7.87;;
37355;SDS011;48747;50.250;18.848;2024-01-16T01:05:52;16.95;;;8.00;;
37355;SDS011;48747;50.250;18.848;2024-01-16T01:08:00;17.05;;;8.58;;
37355;SDS011;48747;50.250;18.848;2024-01-16T01:10:02;19.17;;;8.65;;
37355;SDS011;48747;50.250;18.848;2024-01-16T01:12:05;16.17;;;8.58;;
37355;SDS011;48747;50.250;18.848;2024-01-16T01:14:09;18.17;;;8.53;;
37355;SDS011;48747;50.250;18.848;2024-01-16T01:16:13;19.05;;;8.35;;
37355;SDS011;48747;50.250;18.848;2024-01-16T01:18:16;16.05;;;8.58;;
37355;SDS011;48747;50.250;18.848;2024-01-16T01:20:21;16.95;;;8.58;;
37355;SDS011;48747;50.250;18.848;2024-01-16T01:22:24;17.90;;;9.08;;
37355;SDS011;48747;50.250;18.848;2024-01-16T01:24:32;21.02;;;9.38;;
37355;SDS011;48747;50.250;18.848;2024-01-16T01:26:33;19.10;;;9.05;;
37355;SDS011;48747;50.250;18.848;2024-01-16T01:28:37;16.90;;;9.05;;
37355;SDS011;48747;50.250;18.848;2024-01-16T01:30:41;16.27;;;8.65;;
37355;SDS011;48747;50.250;18.848;2024-01-16T01:32:44;16.97;;;8.43;;
37355;SDS011;48747;50.250;18.848;2024-01-16T01:34:47;17.80;;;9.00;;
37355;SDS011;48747;50.250;18.848;2024-01-16T01:36:56;15.83;;;8.75;;
37355;SDS011;48747;50.250;18.848;2024-01-16T01:39:04;21.37;;;9.23;;
37355;SDS011;48747;50.250;18.848;2024-01-16T01:41:04;20.48;;;9.50;;
37355;SDS011;48747;50.250;18.848;2024-01-16T01:43:17;15.80;;;9.58;;
37355;SDS011;48747;50.250;18.848;2024-01-16T01:45:22;20.30;;;10.38;;
37355;SDS011;48747;50.250;18.848;2024-01-16T01:47:25;19.62;;;10.72;;
37355;SDS011;48747;50.250;18.848;2024-01-16T01:49:28;19.05;;;10.75;;
37355;SDS011;48747;50.250;18.848;2024-01-16T01:51:34;19.70;;;10.85;;
37355;SDS011;48747;50.250;18.848;2024-01-16T01:53:42;20.08;;;10.25;;
37355;SDS011;48747;50.250;18.848;2024-01-16T01:55:46;17.57;;;9.78;;
37355;SDS011;48747;50.250;18.848;2024-01-16T01:57:50;19.60;;;9.43;;
37355;SDS011;48747;50.250;18.848;2024-01-16T01:59:53;17.05;;;8.68;;
37355;SDS011;48747;50.250;18.848;2024-01-16T02:01:56;19.92;;;8.40;;
37355;SDS011;48747;50.250;18.848;2024-01-16T02:04:00;14.78;;;7.80;;
37355;SDS011;48747;50.250;18.848;2024-01-16T02:06:04;17.45;;;9.00;;
37355;SDS011;48747;50.250;18.848;2024-01-16T02:08:08;19.35;;;8.30;;
37355;SDS011;48747;50.250;18.848;2024-01-16T02:10:14;15.28;;;7.67;;
37355;SDS011;48747;50.250;18.848;2024-01-16T02:12:19;14.95;;;7.53;;
37355;SDS011;48747;50.250;18.848;2024-01-16T02:14:23;12.95;;;6.95;;
37355;SDS011;48747;50.250;18.848;2024-01-16T02:16:26;14.33;;;7.20;;
37355;SDS011;48747;50.250;18.848;2024-01-16T02:18:31;12.82;;;7.28;;
37355;SDS011;48747;50.250;18.848;2024-01-16T02:20:34;14.28;;;7.20;;
37355;SDS011;48747;50.250;18.848;2024-01-16T02:22:37;14.47;;;6.22;;
37355;SDS011;48747;50.250;18.848;2024-01-16T02:24:42;13.53;;;6.50;;
37355;SDS011;48747;50.250;18.848;2024-01-16T02:26:45;12.03;;;6.20;;
37355;SDS011;48747;50.250;18.848;2024-01-16T02:28:53;12.50;;;5.87;;
37355;SDS011;48747;50.250;18.848;2024-01-16T02:30:56;13.53;;;6.62;;
37355;SDS011;48747;50.250;18.848;2024-01-16T02:33:02;11.53;;;6.42;;
37355;SDS011;48747;50.250;18.848;2024-01-16T02:35:05;11.68;;;6.30;;
37355;SDS011;48747;50.250;18.848;2024-01-16T02:37:08;14.55;;;6.58;;
37355;SDS011;48747;50.250;18.848;2024-01-16T02:39:11;11.88;;;6.58;;
37355;SDS011;48747;50.250;18.848;2024-01-16T02:41:14;13.10;;;6.33;;
37355;SDS011;48747;50.250;18.848;2024-01-16T02:43:18;11.68;;;6.85;;
37355;SDS011;48747;50.250;18.848;2024-01-16T02:45:26;11.95;;;6.92;;
37355;SDS011;48747;50.250;18.848;2024-01-16T02:47:27;11.43;;;6.17;;
37355;SDS011;48747;50.250;18.848;2024-01-16T02:49:32;9.95;;;6.12;;
37355;SDS011;48747;50.250;18.848;2024-01-16T02:51:37;10.72;;;6.30;;
37355;SDS011;48747;50.250;18.848;2024-01-16T02:53:40;11.50;;;6.40;;
37355;SDS011;48747;50.250;18.848;2024-01-16T02:55:43;11.22;;;6.15;;
37355;SDS011;48747;50.250;18.848;2024-01-16T02:57:47;10.65;;;5.90;;
37355;SDS011;48747;50.250;18.848;2024-01-16T02:59:50;10.98;;;5.83;;
37355;SDS011;48747;50.250;18.848;2024-01-16T03:01:53;12.28;;;6.62;;
37355;SDS011;48747;50.250;18.848;2024-01-16T03:03:57;11.68;;;6.78;;
37355;SDS011;48747;50.250;18.848;2024-01-16T03:06:01;10.80;;;6.60;;
37355;SDS011;48747;50.250;18.848;2024-01-16T03:08:04;12.60;;;7.03;;
37355;SDS011;48747;50.250;18.848;2024-01-16T03:10:08;12.82;;;6.95;;
37355;SDS011;48747;50.250;18.848;2024-01-16T03:12:12;11.30;;;6.62;;
37355;SDS011;48747;50.250;18.848;2024-01-16T03:14:17;16.23;;;7.75;;
37355;SDS011;48747;50.250;18.848;2024-01-16T03:16:20;15.80;;;8.38;;
37355;SDS011;48747;50.250;18.848;2024-01-16T03:18:25;13.35;;;8.18;;
37355;SDS011;48747;50.250;18.848;2024-01-16T03:20:28;16.90;;;8.50;;
37355;SDS011;48747;50.250;18.848;2024-01-16T03:22:31;11.78;;;8.15;;
37355;SDS011;48747;50.250;18.848;2024-01-16T03:24:34;16.23;;;8.90;;
37355;SDS011;48747;50.250;18.848;2024-01-16T03:26:37;14.87;;;8.23;;
37355;SDS011;48747;50.250;18.848;2024-01-16T03:28:45;13.98;;;7.72;;
37355;SDS011;48747;50.250;18.848;2024-01-16T03:30:48;15.18;;;8.23;;
37355;SDS011;48747;50.250;18.848;2024-01-16T03:32:51;16.55;;;8.45;;
37355;SDS011;48747;50.250;18.848;2024-01-16T03:35:03;14.33;;;8.50;;
37355;SDS011;48747;50.250;18.848;2024-01-16T03:37:05;15.48;;;8.63;;
37355;SDS011;48747;50.250;18.848;2024-01-16T03:39:06;20.65;;;10.65;;
37355;SDS011;48747;50.250;18.848;2024-01-16T03:41:13;19.00;;;10.75;;
37355;SDS011;48747;50.250;18.848;2024-01-16T03:43:20;17.85;;;9.08;;
37355;SDS011;48747;50.250;18.848;2024-01-16T03:45:28;12.43;;;7.80;;
37355;SDS011;48747;50.250;18.848;2024-01-16T03:47:27;13.50;;;6.90;;
37355;SDS011;48747;50.250;18.848;2024-01-16T03:49:30;11.63;;;6.72;;
37355;SDS011;48747;50.250;18.848;2024-01-16T03:51:33;12.30;;;6.60;;
37355;SDS011;48747;50.250;18.848;2024-01-16T03:53:36;16.23;;;9.65;;
37355;SDS011;48747;50.250;18.848;2024-01-16T03:55:41;11.08;;;6.65;;
37355;SDS011;48747;50.250;18.848;2024-01-16T03:57:45;9.85;;;6.67;;
37355;SDS011;48747;50.250;18.848;2024-01-16T03:59:52;11.53;;;6.97;;
37355;SDS011;48747;50.250;18.848;2024-01-16T04:02:00;11.30;;;7.37;;
37355;SDS011;48747;50.250;18.848;2024-01-16T04:04:04;9.63;;;6.47;;
37355;SDS011;48747;50.250;18.848;2024-01-16T04:06:14;11.95;;;6.95;;
37355;SDS011;48747;50.250;18.848;2024-01-16T04:08:19;13.28;;;6.90;;
37355;SDS011;48747;50.250;18.848;2024-01-16T04:10:22;11.57;;;6.50;;
37355;SDS011;48747;50.250;18.848;2024-01-16T04:12:25;13.70;;;6.62;;
37355;SDS011;48747;50.250;18.848;2024-01-16T04:14:28;11.95;;;5.92;;
37355;SDS011;48747;50.250;18.848;2024-01-16T04:16:34;8.30;;;5.20;;
37355;SDS011;48747;50.250;18.848;2024-01-16T04:18:40;12.43;;;6.12;;
37355;SDS011;48747;50.250;18.848;2024-01-16T04:20:45;10.48;;;5.92;;
37355;SDS011;48747;50.250;18.848;2024-01-16T04:22:50;9.28;;;5.30;;
37355;SDS011;48747;50.250;18.848;2024-01-16T04:24:53;7.83;;;4.58;;
37355;SDS011;48747;50.250;18.848;2024-01-16T04:26:59;7.53;;;5.72;;
37355;SDS011;48747;50.250;18.848;2024-01-16T04:29:04;9.03;;;4.97;;
37355;SDS011;48747;50.250;18.848;2024-01-16T04:31:09;7.90;;;4.60;;
37355;SDS011;48747;50.250;18.848;2024-01-16T04:33:14;8.90;;;5.10;;
37355;SDS011;48747;50.250;18.848;2024-01-16T04:35:17;9.45;;;5.17;;
37355;SDS011;48747;50.250;18.848;2024-01-16T04:37:21;8.98;;;5.20;;
37355;SDS011;48747;50.250;18.848;2024-01-16T04:39:29;8.95;;;5.10;;
37355;SDS011;48747;50.250;18.848;2024-01-16T04:41:31;16.87;;;7.62;;
37355;SDS011;48747;50.250;18.848;2024-01-16T04:43:38;15.53;;;6.33;;
37355;SDS011;48747;50.250;18.848;2024-01-16T04:45:40;18.50;;;8.63;;
37355;SDS011;48747;50.250;18.848;2024-01-16T04:47:43;10.10;;;6.08;;
37355;SDS011;48747;50.250;18.848;2024-01-16T04:49:46;12.25;;;5.92;;
37355;SDS011;48747;50.250;18.848;2024-01-16T04:51:49;11.30;;;5.30;;
37355;SDS011;48747;50.250;18.848;2024-01-16T04:53:52;15.40;;;6.37;;
37355;SDS011;48747;50.250;18.848;2024-01-16T04:55:56;16.97;;;6.53;;
37355;SDS011;48747;50.250;18.848;2024-01-16T04:58:01;14.03;;;5.92;;
37355;SDS011;48747;50.250;18.848;2024-01-16T05:00:10;13.18;;;5.05;;
37355;SDS011;48747;50.250;18.848;2024-01-16T05:02:13;12.43;;;4.90;;
37355;SDS011;48747;50.250;18.848;2024-01-16T05:04:18;17.57;;;5.60;;
37355;SDS011;48747;50.250;18.848;2024-01-16T05:06:21;12.68;;;5.80;;
37355;SDS011;48747;50.250;18.848;2024-01-16T05:08:24;18.07;;;7.25;;
37355;SDS011;48747;50.250;18.848;2024-01-16T05:10:29;15.48;;;6.53;;
37355;SDS011;48747;50.250;18.848;2024-01-16T05:12:32;15.35;;;6.85;;
37355;SDS011;48747;50.250;18.848;2024-01-16T05:14:35;16.93;;;7.65;;
37355;SDS011;48747;50.250;18.848;2024-01-16T05:16:38;17.25;;;7.00;;
37355;SDS011;48747;50.250;18.848;2024-01-16T05:18:41;15.50;;;6.83;;
37355;SDS011;48747;50.250;18.848;2024-01-16T05:20:50;18.98;;;7.37;;
37355;SDS011;48747;50.250;18.848;2024-01-16T05:22:49;21.30;;;9.28;;
37355;SDS011;48747;50.250;18.848;2024-01-16T05:24:57;19.85;;;8.80;;
37355;SDS011;48747;50.250;18.848;2024-01-16T05:27:05;20.88;;;8.38;;
37355;SDS011;48747;50.250;18.848;2024-01-16T05:29:08;54.93;;;27.73;;
37355;SDS011;48747;50.250;18.848;2024-01-16T05:31:11;54.85;;;24.45;;
37355;SDS011;48747;50.250;18.848;2024-01-16T05:33:19;24.07;;;12.45;;
37355;SDS011;48747;50.250;18.848;2024-01-16T05:35:23;24.98;;;12.98;;
37355;SDS011;48747;50.250;18.848;2024-01-16T05:37:26;21.33;;;10.18;;
37355;SDS011;48747;50.250;18.848;2024-01-16T05:39:30;20.68;;;9.55;;
37355;SDS011;48747;50.250;18.848;2024-01-16T05:41:34;16.12;;;8.35;;
37355;SDS011;48747;50.250;18.848;2024-01-16T05:43:39;16.67;;;8.10;;
37355;SDS011;48747;50.250;18.848;2024-01-16T05:45:42;17.35;;;9.18;;
37355;SDS011;48747;50.250;18.848;2024-01-16T05:47:48;16.62;;;7.80;;
37355;SDS011;48747;50.250;18.848;2024-01-16T05:49:51;21.37;;;7.67;;
37355;SDS011;48747;50.250;18.848;2024-01-16T05:51:56;19.32;;;10.00;;
37355;SDS011;48747;50.250;18.848;2024-01-16T05:53:59;22.80;;;9.83;;
37355;SDS011;48747;50.250;18.848;2024-01-16T05:56:02;19.20;;;10.32;;
37355;SDS011;48747;50.250;18.848;2024-01-16T05:58:05;46.42;;;22.58;;
37355;SDS011;48747;50.250;18.848;2024-01-16T06:00:08;103.20;;;44.08;;
37355;SDS011;48747;50.250;18.848;2024-01-16T06:02:12;88.82;;;38.53;;
37355;SDS011;48747;50.250;18.848;2024-01-16T06:04:15;47.83;;;22.20;;
37355;SDS011;48747;50.250;18.848;2024-01-16T06:06:20;47.08;;;23.02;;
37355;SDS011;48747;50.250;18.848;2024-01-16T06:08:25;41.37;;;20.75;;
37355;SDS011;48747;50.250;18.848;2024-01-16T06:10:30;39.78;;;19.17;;
37355;SDS011;48747;50.250;18.848;2024-01-16T06:12:33;40.00;;;20.02;;
37355;SDS011;48747;50.250;18.848;2024-01-16T06:14:38;28.85;;;16.32;;
37355;SDS011;48747;50.250;18.848;2024-01-16T06:16:45;33.10;;;18.67;;
37355;SDS011;48747;50.250;18.848;2024-01-16T06:18:49;26.02;;;14.78;;
37355;SDS011;48747;50.250;18.848;2024-01-16T06:20:52;27.95;;;15.95;;
37355;SDS011;48747;50.250;18.848;2024-01-16T06:22:56;25.88;;;15.00;;
37355;SDS011;48747;50.250;18.848;2024-01-16T06:24:59;31.05;;;16.35;;
37355;SDS011;48747;50.250;18.848;2024-01-16T06:27:04;37.05;;;17.45;;
37355;SDS011;48747;50.250;18.848;2024-01-16T06:29:09;30.80;;;16.62;;
37355;SDS011;48747;50.250;18.848;2024-01-16T06:31:12;33.23;;;17.17;;
37355;SDS011;48747;50.250;18.848;2024-01-16T06:33:15;31.25;;;16.20;;
37355;SDS011;48747;50.250;18.848;2024-01-16T06:35:18;27.17;;;14.10;;
37355;SDS011;48747;50.250;18.848;2024-01-16T06:37:27;26.42;;;14.40;;
37355;SDS011;48747;50.250;18.848;2024-01-16T06:39:26;28.20;;;15.23;;
37355;SDS011;48747;50.250;18.848;2024-01-16T06:41:29;26.97;;;13.78;;
37355;SDS011;48747;50.250;18.848;2024-01-16T06:43:32;26.10;;;14.35;;
37355;SDS011;48747;50.250;18.848;2024-01-16T06:45:52;22.32;;;12.30;;
37355;SDS011;48747;50.250;18.848;2024-01-16T06:47:50;20.27;;;11.20;;
37355;SDS011;48747;50.250;18.848;2024-01-16T06:49:49;20.17;;;11.75;;
37355;SDS011;48747;50.250;18.848;2024-01-16T06:51:54;23.87;;;12.98;;
37355;SDS011;48747;50.250;18.848;2024-01-16T06:53:59;19.60;;;10.28;;
37355;SDS011;48747;50.250;18.848;2024-01-16T06:56:02;20.05;;;11.93;;
37355;SDS011;48747;50.250;18.848;2024-01-16T06:58:07;18.57;;;9.88;;
37355;SDS011;48747;50.250;18.848;2024-01-16T07:00:13;24.95;;;11.68;;
37355;SDS011;48747;50.250;18.848;2024-01-16T07:02:18;29.55;;;12.13;;
37355;SDS011;48747;50.250;18.848;2024-01-16T07:04:23;21.52;;;11.30;;
37355;SDS011;48747;50.250;18.848;2024-01-16T07:06:28;19.85;;;11.03;;
37355;SDS011;48747;50.250;18.848;2024-01-16T07:08:31;17.52;;;9.25;;
37355;SDS011;48747;50.250;18.848;2024-01-16T07:10:48;27.20;;;12.33;;
37355;SDS011;48747;50.250;18.848;2024-01-16T07:12:39;28.98;;;12.60;;
37355;SDS011;48747;50.250;18.848;2024-01-16T07:14:47;21.62;;;10.72;;
37355;SDS011;48747;50.250;18.848;2024-01-16T07:16:48;19.50;;;10.35;;
37355;SDS011;48747;50.250;18.848;2024-01-16T07:18:54;20.12;;;10.20;;
37355;SDS011;48747;50.250;18.848;2024-01-16T07:20:58;25.80;;;13.20;;
37355;SDS011;48747;50.250;18.848;2024-01-16T07:23:04;32.90;;;13.38;;
37355;SDS011;48747;50.250;18.848;2024-01-16T07:25:10;21.35;;;11.00;;
37355;SDS011;48747;50.250;18.848;2024-01-16T07:27:16;30.08;;;13.55;;
37355;SDS011;48747;50.250;18.848;2024-01-16T07:29:20;34.78;;;14.40;;
37355;SDS011;48747;50.250;18.848;2024-01-16T07:31:38;36.95;;;15.68;;
37355;SDS011;48747;50.250;18.848;2024-01-16T07:33:30;26.12;;;12.82;;
37355;SDS011;48747;50.250;18.848;2024-01-16T07:35:37;25.27;;;13.32;;
37355;SDS011;48747;50.250;18.848;2024-01-16T07:37:43;38.98;;;15.70;;
37355;SDS011;48747;50.250;18.848;2024-01-16T07:42:46;32.45;;;16.57;;
37355;SDS011;48747;50.250;18.848;2024-01-16T07:44:49;38.73;;;19.42;;
37355;SDS011;48747;50.250;18.848;2024-01-16T07:46:53;38.05;;;18.45;;
37355;SDS011;48747;50.250;18.848;2024-01-16T07:49:00;36.83;;;16.05;;
37355;SDS011;48747;50.250;18.848;2024-01-16T07:51:06;35.88;;;15.68;;
37355;SDS011;48747;50.250;18.848;2024-01-16T07:53:15;33.08;;;14.83;;
37355;SDS011;48747;50.250;18.848;2024-01-16T07:55:21;26.35;;;13.28;;
37355;SDS011;48747;50.250;18.848;2024-01-16T07:57:24;25.85;;;13.48;;
37355;SDS011;48747;50.250;18.848;2024-01-16T07:59:29;32.98;;;14.53;;
37355;SDS011;48747;50.250;18.848;2024-01-16T08:01:33;25.17;;;12.70;;
37355;SDS011;48747;50.250;18.848;2024-01-16T08:06:14;26.68;;;12.80;;
37355;SDS011;48747;50.250;18.848;2024-01-16T08:08:26;40.45;;;20.57;;
37355;SDS011;48747;50.250;18.848;2024-01-16T08:10:23;36.70;;;18.87;;
37355;SDS011;48747;50.250;18.848;2024-01-16T08:12:27;38.80;;;20.92;;
37355;SDS011;48747;50.250;18.848;2024-01-16T08:14:37;32.98;;;15.43;;
37355;SDS011;48747;50.250;18.848;2024-01-16T08:16:49;31.30;;;14.55;;
37355;SDS011;48747;50.250;18.848;2024-01-16T08:18:48;28.23;;;13.78;;
37355;SDS011;48747;50.250;18.848;2024-01-16T08:21:07;21.48;;;12.40;;
37355;SDS011;48747;50.250;18.848;2024-01-16T08:23:06;38.85;;;17.07;;
37355;SDS011;48747;50.250;18.848;2024-01-16T08:25:26;49.48;;;22.98;;
37355;SDS011;48747;50.250;18.848;2024-01-16T08:29:30;36.83;;;15.65;;
37355;SDS011;48747;50.250;18.848;2024-01-16T08:31:30;48.68;;;17.98;;
37355;SDS011;48747;50.250;18.848;2024-01-16T08:33:35;37.73;;;15.40;;
37355;SDS011;48747;50.250;18.848;2024-01-16T08:35:39;36.35;;;14.75;;
37355;SDS011;48747;50.250;18.848;2024-01-16T08:37:46;33.10;;;14.73;;
37355;SDS011;48747;50.250;18.848;2024-01-16T08:41:58;28.62;;;13.65;;
37355;SDS011;48747;50.250;18.848;2024-01-16T08:44:08;28.55;;;12.78;;
37355;SDS011;48747;50.250;18.848;2024-01-16T08:46:17;27.77;;;13.35;;
37355;SDS011;48747;50.250;18.848;2024-01-16T08:50:34;24.27;;;11.33;;
37355;SDS011;48747;50.250;18.848;2024-01-16T08:52:41;25.62;;;12.55;;
37355;SDS011;48747;50.250;18.848;2024-01-16T08:54:47;26.75;;;13.53;;
37355;SDS011;48747;50.250;18.848;2024-01-16T08:56:52;28.27;;;12.55;;
37355;SDS011;48747;50.250;18.848;2024-01-16T08:58:58;24.50;;;11.45;;
37355;SDS011;48747;50.250;18.848;2024-01-16T09:01:03;26.42;;;11.83;;
37355;SDS011;48747;50.250;18.848;2024-01-16T09:03:18;21.55;;;10.35;;
37355;SDS011;48747;50.250;18.848;2024-01-16T09:05:17;22.20;;;11.12;;
37355;SDS011;48747;50.250;18.848;2024-01-16T09:15:00;42.80;;;18.70;;
37355;SDS011;48747;50.250;18.848;2024-01-16T09:17:09;44.13;;;20.40;;
37355;SDS011;48747;50.250;18.848;2024-01-16T09:19:11;35.50;;;17.37;;
37355;SDS011;48747;50.250;18.848;2024-01-16T09:21:14;25.30;;;14.33;;
37355;SDS011;48747;50.250;18.848;2024-01-16T09:23:21;36.33;;;17.73;;
37355;SDS011;48747;50.250;18.848;2024-01-16T09:25:24;54.90;;;35.90;;
37355;SDS011;48747;50.250;18.848;2024-01-16T09:27:30;32.28;;;18.60;;
37355;SDS011;48747;50.250;18.848;2024-01-16T09:29:42;26.05;;;15.68;;
37355;SDS011;48747;50.250;18.848;2024-01-16T09:31:48;56.30;;;26.33;;
37355;SDS011;48747;50.250;18.848;2024-01-16T09:33:52;27.82;;;12.37;;
37355;SDS011;48747;50.250;18.848;2024-01-16T09:35:57;29.80;;;12.25;;
37355;SDS011;48747;50.250;18.848;2024-01-16T09:38:01;38.80;;;14.28;;
37355;SDS011;48747;50.250;18.848;2024-01-16T09:40:06;30.52;;;11.78;;
37355;SDS011;48747;50.250;18.848;2024-01-16T09:42:10;32.58;;;12.98;;
37355;SDS011;48747;50.250;18.848;2024-01-16T09:44:14;32.28;;;13.48;;
37355;SDS011;48747;50.250;18.848;2024-01-16T09:46:17;35.85;;;14.43;;
37355;SDS011;48747;50.250;18.848;2024-01-16T09:48:24;29.27;;;13.15;;
37355;SDS011;48747;50.250;18.848;2024-01-16T09:50:30;24.90;;;10.90;;
37355;SDS011;48747;50.250;18.848;2024-01-16T09:52:34;28.55;;;12.80;;
37355;SDS011;48747;50.250;18.848;2024-01-16T09:54:39;28.83;;;11.43;;
37355;SDS011;48747;50.250;18.848;2024-01-16T09:56:44;36.58;;;14.23;;
37355;SDS011;48747;50.250;18.848;2024-01-16T09:58:58;33.65;;;13.68;;
37355;SDS011;48747;50.250;18.848;2024-01-16T10:00:59;42.48;;;14.15;;
37355;SDS011;48747;50.250;18.848;2024-01-16T10:05:34;29.03;;;11.17;;
37355;SDS011;48747;50.250;18.848;2024-01-16T10:07:38;26.93;;;9.28;;
37355;SDS011;48747;50.250;18.848;2024-01-16T10:09:43;29.05;;;10.55;;
37355;SDS011;48747;50.250;18.848;2024-01-16T10:11:46;21.23;;;8.20;;
37355;SDS011;48747;50.250;18.848;2024-01-16T10:13:50;45.43;;;17.25;;
37355;SDS011;48747;50.250;18.848;2024-01-16T10:15:57;75.47;;;28.67;;
37355;SDS011;48747;50.250;18.848;2024-01-16T10:18:01;105.92;;;43.20;;
37355;SDS011;48747;50.250;18.848;2024-01-16T10:20:08;17.98;;;9.28;;
37355;SDS011;48747;50.250;18.848;2024-01-16T10:24:26;8.83;;;4.30;;
37355;SDS011;48747;50.250;18.848;2024-01-16T10:26:29;8.78;;;5.30;;
37355;SDS011;48747;50.250;18.848;2024-01-16T10:28:41;8.55;;;4.45;;
37355;SDS011;48747;50.250;18.848;2024-01-16T10:30:40;16.17;;;6.30;;
37355;SDS011;48747;50.250;18.848;2024-01-16T10:32:45;33.42;;;13.72;;
37355;SDS011;48747;50.250;18.848;2024-01-16T10:34:49;19.17;;;7.42;;
37355;SDS011;48747;50.250;18.848;2024-01-16T10:36:59;20.55;;;8.03;;
37355;SDS011;48747;50.250;18.848;2024-01-16T10:39:07;17.27;;;5.35;;
37355;SDS011;48747;50.250;18.848;2024-01-16T10:41:13;11.78;;;4.53;;
37355;SDS011;48747;50.250;18.848;2024-01-16T10:43:18;13.53;;;6.17;;
37355;SDS011;48747;50.250;18.848;2024-01-16T10:45:28;12.28;;;5.33;;
37355;SDS011;48747;50.250;18.848;2024-01-16T10:47:27;47.70;;;19.12;;
37355;SDS011;48747;50.250;18.848;2024-01-16T10:49:33;13.75;;;5.50;;
37355;SDS011;48747;50.250;18.848;2024-01-16T10:51:40;11.15;;;4.78;;
37355;SDS011;48747;50.250;18.848;2024-01-16T10:53:50;14.18;;;7.20;;
37355;SDS011;48747;50.250;18.848;2024-01-16T10:55:56;11.28;;;5.85;;
37355;SDS011;48747;50.250;18.848;2024-01-16T10:58:01;10.15;;;4.95;;
37355;SDS011;48747;50.250;18.848;2024-01-16T11:00:12;12.35;;;6.78;;
37355;SDS011;48747;50.250;18.848;2024-01-16T11:02:15;36.88;;;23.10;;
37355;SDS011;48747;50.250;18.848;2024-01-16T11:04:21;13.95;;;7.20;;
37355;SDS011;48747;50.250;18.848;2024-01-16T11:06:25;12.30;;;4.40;;
37355;SDS011;48747;50.250;18.848;2024-01-16T11:08:29;11.53;;;5.03;;
37355;SDS011;48747;50.250;18.848;2024-01-16T11:10:34;10.25;;;4.10;;
37355;SDS011;48747;50.250;18.848;2024-01-16T11:12:38;9.05;;;4.58;;
37355;SDS011;48747;50.250;18.848;2024-01-16T11:14:42;8.03;;;4.00;;
37355;SDS011;48747;50.250;18.848;2024-01-16T11:16:52;13.98;;;6.08;;
37355;SDS011;48747;50.250;18.848;2024-01-16T11:18:54;5.60;;;3.20;;
37355;SDS011;48747;50.250;18.848;2024-01-16T11:20:57;8.18;;;3.40;;
37355;SDS011;48747;50.250;18.848;2024-01-16T11:23:01;10.65;;;4.75;;
37355;SDS011;48747;50.250;18.848;2024-01-16T11:25:17;10.18;;;4.17;;
37355;SDS011;48747;50.250;18.848;2024-01-16T11:27:22;8.20;;;4.28;;
37355;SDS011;48747;50.250;18.848;2024-01-16T11:31:37;11.18;;;5.83;;
37355;SDS011;48747;50.250;18.848;2024-01-16T11:33:42;6.87;;;4.05;;
37355;SDS011;48747;50.250;18.848;2024-01-16T11:35:45;9.00;;;4.50;;
37355;SDS011;48747;50.250;18.848;2024-01-16T11:37:53;7.28;;;4.10;;
37355;SDS011;48747;50.250;18.848;2024-01-16T11:42:28;7.35;;;3.83;;
37355;SDS011;48747;50.250;18.848;2024-01-16T11:49:36;14.55;;;6.25;;
37355;SDS011;48747;50.250;18.848;2024-01-16T11:51:40;8.05;;;4.28;;
37355;SDS011;48747;50.250;18.848;2024-01-16T11:53:45;8.78;;;4.50;;
37355;SDS011;48747;50.250;18.848;2024-01-16T11:58:18;7.30;;;3.62;;
37355;SDS011;48747;50.250;18.848;2024-01-16T12:00:21;8.83;;;4.10;;
37355;SDS011;48747;50.250;18.848;2024-01-16T12:05:15;7.65;;;3.85;;
37355;SDS011;48747;50.250;18.848;2024-01-16T12:07:06;10.38;;;4.90;;
37355;SDS011;48747;50.250;18.848;2024-01-16T12:11:19;6.37;;;3.35;;
37355;SDS011;48747;50.250;18.848;2024-01-16T12:13:25;8.45;;;3.33;;
37355;SDS011;48747;50.250;18.848;2024-01-16T12:15:39;6.25;;;3.62;;
37355;SDS011;48747;50.250;18.848;2024-01-16T12:17:37;9.43;;;3.98;;
37355;SDS011;48747;50.250;18.848;2024-01-16T12:22:12;11.90;;;4.67;;
37355;SDS011;48747;50.250;18.848;2024-01-16T12:24:16;8.15;;;3.60;;
37355;SDS011;48747;50.250;18.848;2024-01-16T12:26:22;8.78;;;4.08;;
37355;SDS011;48747;50.250;18.848;2024-01-16T12:28:25;8.03;;;3.72;;
37355;SDS011;48747;50.250;18.848;2024-01-16T12:30:31;10.95;;;5.03;;
37355;SDS011;48747;50.250;18.848;2024-01-16T12:32:38;10.25;;;4.83;;
37355;SDS011;48747;50.250;18.848;2024-01-16T12:34:44;10.63;;;4.80;;
37355;SDS011;48747;50.250;18.848;2024-01-16T12:37:04;16.55;;;7.47;;
37355;SDS011;48747;50.250;18.848;2024-01-16T12:39:12;12.28;;;5.30;;
37355;SDS011;48747;50.250;18.848;2024-01-16T12:41:15;11.85;;;5.65;;
37355;SDS011;48747;50.250;18.848;2024-01-16T12:43:29;8.45;;;4.40;;
37355;SDS011;48747;50.250;18.848;2024-01-16T12:45:25;8.98;;;4.75;;
37355;SDS011;48747;50.250;18.848;2024-01-16T12:47:30;8.78;;;4.60;;
37355;SDS011;48747;50.250;18.848;2024-01-16T12:49:41;9.23;;;4.35;;
37355;SDS011;48747;50.250;18.848;2024-01-16T12:51:47;9.58;;;4.25;;